Time;durP1;ratioP1;P1;durP2;ratioP2;P2;SDS_P1;SDS_P2;PMS_P1;PMS_P2;Temp;Humidity;BMP_temperature;BMP_pressure;BME280_temperature;BME280_humidity;BME280_pressure;Samples;Min_cycle;Max_cycle;Signal;HPM_P1;HPM_P2
2023/07/28 00:01:37;;;;;;;2.73;2.53;;;;;;;25.82;31.03;95155.78;6106632;28;109144;-65
2023/07/28 00:04:41;;;;;;;2.93;2.73;;;;;;;25.86;30.88;95154.03;6111404;28;109214;-65
2023/07/28 00:07:44;;;;;;;3.10;2.80;;;;;;;25.91;31.07;95153.84;6110728;28;108936;-64
2023/07/28 00:10:47;;;;;;;2.80;2.60;;;;;;;25.88;31.28;95151.81;6100452;28;109202;-65
2023/07/28 00:13:51;;;;;;;3.70;2.87;;;;;;;25.85;31.02;95149.78;6111367;28;109239;-64
2023/07/28 00:16:54;;;;;;;2.70;2.50;;;;;;;25.81;30.91;95154.22;6111674;28;109106;-64
2023/07/28 00:19:58;;;;;;;3.13;2.93;;;;;;;25.80;30.71;95153.44;6111308;28;109190;-64
2023/07/28 00:23:02;;;;;;;3.27;2.40;;;;;;;25.77;30.98;95147.97;6104217;28;110122;-64
2023/07/28 00:26:05;;;;;;;3.10;2.90;;;;;;;25.79;31.01;95145.72;6115460;28;110136;-64
2023/07/28 00:29:08;;;;;;;3.10;2.80;;;;;;;25.79;31.17;95140.38;6114649;28;109139;-65
2023/07/28 00:32:11;;;;;;;2.67;2.47;;;;;;;25.78;31.32;95133.44;6113946;28;109762;-64
2023/07/28 00:35:16;;;;;;;3.40;3.10;;;;;;;25.75;31.18;95144.81;6104573;28;110032;-65
2023/07/28 00:38:19;;;;;;;4.53;4.23;;;;;;;25.74;31.12;95143.25;6114953;28;108839;-65
2023/07/28 00:41:22;;;;;;;3.37;3.17;;;;;;;25.66;31.50;95142.97;6114021;28;109238;-65
2023/07/28 00:44:25;;;;;;;3.53;3.33;;;;;;;25.65;31.20;95152.13;6110536;28;109520;-61
2023/07/28 00:47:28;;;;;;;3.33;3.13;;;;;;;25.66;31.15;95148.34;6110780;28;109268;-60
2023/07/28 00:50:33;;;;;;;3.13;2.93;;;;;;;25.61;31.37;95151.22;6115159;28;110212;-60
2023/07/28 00:53:36;;;;;;;5.70;3.87;;;;;;;25.60;31.51;95155.00;6113786;28;110142;-59
2023/07/28 00:56:39;;;;;;;3.27;3.07;;;;;;;25.59;31.55;95153.44;6104458;28;109340;-59
2023/07/28 00:59:42;;;;;;;3.17;2.97;;;;;;;25.50;31.50;95144.66;6114131;28;110171;-60
2023/07/28 01:02:45;;;;;;;3.27;2.90;;;;;;;25.48;31.20;95152.22;6112621;28;109538;-59
2023/07/28 01:06:08;;;;;;;2.87;2.67;;;;;;;25.56;31.62;95153.31;6114729;28;109134;-59
2023/07/28 01:09:15;;;;;;;3.37;3.07;;;;;;;25.78;31.32;95149.53;6122796;28;109222;-61
2023/07/28 01:12:18;;;;;;;3.27;2.97;;;;;;;25.95;31.67;95146.72;6119771;28;108955;-61
2023/07/28 01:15:21;;;;;;;3.53;3.23;;;;;;;26.03;31.00;95153.91;6114493;28;108910;-61
2023/07/28 01:18:24;;;;;;;3.80;3.30;;;;;;;26.06;31.17;95160.56;6108854;28;109195;-62
2023/07/28 01:21:32;;;;;;;3.57;3.27;;;;;;;26.07;31.00;95152.16;6108098;28;109279;-61
2023/07/28 01:24:48;;;;;;;4.28;2.90;;;;;;;26.01;31.27;95145.41;6111739;28;109182;-62
2023/07/28 01:27:54;;;;;;;3.70;3.10;;;;;;;25.96;31.58;95150.97;6112257;28;109301;-61
2023/07/28 01:30:57;;;;;;;3.10;2.85;;;;;;;25.95;31.34;95147.50;6101151;28;109249;-62
2023/07/28 01:34:00;;;;;;;3.20;3.00;;;;;;;25.96;32.08;95148.28;6111970;28;109249;-62
2023/07/28 01:37:04;;;;;;;3.13;2.88;;;;;;;25.93;31.47;95138.22;6112001;28;110869;-62
2023/07/28 01:40:09;;;;;;;3.40;3.10;;;;;;;25.92;31.90;95142.78;6118070;28;109242;-62
2023/07/28 01:43:13;;;;;;;3.08;2.88;;;;;;;25.88;31.36;95141.09;6102116;28;109279;-62
2023/07/28 01:46:16;;;;;;;3.20;2.70;;;;;;;25.90;31.86;95144.25;6112080;28;109087;-61
2023/07/28 01:49:20;;;;;;;3.10;2.80;;;;;;;25.87;32.02;95137.59;6115786;28;109300;-61
2023/07/28 01:52:23;;;;;;;3.20;2.90;;;;;;;25.87;31.45;95142.97;6107230;28;110208;-62
2023/07/28 01:55:26;;;;;;;3.00;2.70;;;;;;;25.85;31.97;95145.19;6106251;28;109262;-66
2023/07/28 01:58:30;;;;;;;3.30;3.00;;;;;;;25.85;31.64;95147.88;6111349;28;109290;-67
2023/07/28 02:01:33;;;;;;;3.07;2.77;;;;;;;25.85;31.67;95147.88;6110072;28;109191;-66
2023/07/28 02:04:37;;;;;;;2.80;2.60;;;;;;;25.85;31.46;95144.41;6101969;28;109157;-66
2023/07/28 02:07:40;;;;;;;4.45;2.50;;;;;;;25.82;31.52;95139.72;6111890;28;108945;-66
2023/07/28 02:10:44;;;;;;;2.70;2.50;;;;;;;25.78;31.26;95142.28;6110938;28;109228;-66
2023/07/28 02:13:48;;;;;;;3.10;2.60;;;;;;;25.80;31.67;95144.63;6110793;28;109359;-66
2023/07/28 02:16:52;;;;;;;2.72;2.53;;;;;;;25.79;31.48;95145.72;6100449;28;109130;-67
2023/07/28 02:19:55;;;;;;;2.97;2.67;;;;;;;25.79;31.88;95145.72;6112541;28;109103;-66
2023/07/28 02:22:58;;;;;;;3.10;2.80;;;;;;;25.79;31.60;95151.09;6111494;28;109285;-66
2023/07/28 02:26:01;;;;;;;2.87;2.60;;;;;;;25.77;31.65;95154.09;6110005;28;109176;-65
2023/07/28 02:29:06;;;;;;;2.90;2.50;;;;;;;25.76;31.15;95151.75;6117392;28;109907;-66
2023/07/28 02:32:09;;;;;;;2.60;2.40;;;;;;;25.74;31.13;95153.97;6121736;28;109119;-66
2023/07/28 02:35:12;;;;;;;2.60;2.40;;;;;;;25.74;31.17;95159.34;6111028;28;109207;-66
2023/07/28 02:38:16;;;;;;;2.80;2.60;;;;;;;25.73;31.29;95152.41;6108110;28;109303;-65
2023/07/28 02:41:19;;;;;;;2.42;2.30;;;;;;;25.68;31.72;95151.47;6128693;28;109386;-66
2023/07/28 02:44:23;;;;;;;5.20;2.40;;;;;;;25.71;31.30;95149.25;6111052;28;109466;-67
2023/07/28 02:47:26;;;;;;;2.60;2.40;;;;;;;25.73;31.54;95153.19;6110656;28;109208;-65
2023/07/28 02:50:29;;;;;;;2.70;2.50;;;;;;;25.72;31.39;95157.00;6091620;28;110231;-65
2023/07/28 02:53:33;;;;;;;2.90;2.70;;;;;;;25.71;31.36;95150.06;6105654;28;109312;-66
2023/07/28 02:56:37;;;;;;;2.78;2.58;;;;;;;25.72;31.44;95153.53;6087484;28;110947;-66
2023/07/28 02:59:42;;;;;;;3.10;2.50;;;;;;;25.72;31.04;95150.84;6121100;28;109204;-66
2023/07/28 03:02:45;;;;;;;3.47;2.40;;;;;;;25.69;30.92;95150.34;6104858;28;109123;-62
2023/07/28 03:05:53;;;;;;;2.50;2.30;;;;;;;25.75;31.35;95148.28;6110920;28;109389;-61
2023/07/28 03:08:59;;;;;;;2.97;2.78;;;;;;;25.71;30.98;95151.91;6111063;28;109836;-60
2023/07/28 03:12:02;;;;;;;4.20;3.60;;;;;;;25.75;31.39;95156.34;6106003;28;109135;-61
2023/07/28 03:15:08;;;;;;;6.30;5.70;;;;;;;25.73;31.70;95155.09;6106208;28;109374;-60
2023/07/28 03:18:11;;;;;;;17.50;16.00;;;;;;;25.68;31.23;95159.50;6115193;28;110290;-60
2023/07/28 03:21:15;;;;;;;19.93;18.33;;;;;;;25.64;31.79;95166.63;6110986;28;109924;-61
2023/07/28 03:24:18;;;;;;;25.70;23.60;;;;;;;25.67;31.84;95163.31;6108940;28;110860;-60
2023/07/28 03:27:21;;;;;;;22.45;20.65;;;;;;;25.72;31.23;95167.72;6134438;28;109053;-60
2023/07/28 03:30:26;;;;;;;16.17;14.68;;;;;;;25.70;31.17;95169.91;6117816;28;109250;-65
2023/07/28 03:33:29;;;;;;;14.82;13.63;;;;;;;25.68;31.31;95175.59;6115163;28;109458;-61
2023/07/28 03:36:32;;;;;;;12.40;10.85;;;;;;;25.65;31.27;95173.56;6100240;28;110075;-60
2023/07/28 03:39:37;;;;;;;9.20;8.40;;;;;;;25.66;31.57;95169.00;6129059;28;108886;-60
2023/07/28 03:42:40;;;;;;;7.28;6.43;;;;;;;25.61;31.24;95169.19;6117399;28;109033;-60
2023/07/28 03:45:45;;;;;;;6.65;6.05;;;;;;;25.65;31.35;95173.56;6105505;28;109303;-60
2023/07/28 03:48:48;;;;;;;6.20;5.70;;;;;;;25.66;31.25;95169.78;6104706;28;109095;-60
2023/07/28 03:51:51;;;;;;;6.78;6.07;;;;;;;25.67;31.26;95171.34;6109067;28;109247;-61
2023/07/28 03:54:54;;;;;;;11.23;7.10;;;;;;;25.60;31.47;95175.66;6116904;28;109304;-62
2023/07/28 03:57:57;;;;;;;5.93;4.50;;;;;;;25.58;31.61;95178.66;6102086;28;109414;-63
2023/07/28 04:01:02;;;;;;;5.47;4.00;;;;;;;25.59;31.94;95177.56;6114418;28;109082;-61
2023/07/28 04:04:05;;;;;;;5.60;4.10;;;;;;;25.61;31.51;95171.88;6124297;28;109139;-67
2023/07/28 04:07:11;;;;;;;5.22;3.85;;;;;;;25.57;31.60;95181.69;6116454;28;109080;-67
2023/07/28 04:10:14;;;;;;;3.40;3.10;;;;;;;25.55;31.47;95173.97;6105932;28;109283;-67
2023/07/28 04:13:17;;;;;;;3.45;3.10;;;;;;;25.56;31.54;95191.63;6115239;28;110215;-66
2023/07/28 04:16:22;;;;;;;4.60;3.35;;;;;;;25.53;31.91;95192.25;6137509;28;109416;-67
2023/07/28 04:19:25;;;;;;;4.90;3.20;;;;;;;25.54;32.03;95199.19;6104910;28;109162;-67
2023/07/28 04:22:28;;;;;;;4.50;2.88;;;;;;;25.61;31.79;95187.94;6111127;28;109190;-67
2023/07/28 04:25:31;;;;;;;3.90;3.10;;;;;;;25.58;31.91;95178.66;6118840;28;109522;-65
2023/07/28 04:28:34;;;;;;;4.15;3.00;;;;;;;25.49;31.91;95190.53;6114120;28;109106;-67
2023/07/28 04:31:39;;;;;;;4.53;2.70;;;;;;;25.45;31.40;95193.09;6106251;28;109233;-65
2023/07/28 04:34:42;;;;;;;4.33;2.80;;;;;;;25.46;31.55;95188.50;6112034;28;109193;-66
2023/07/28 04:37:45;;;;;;;2.90;2.70;;;;;;;25.43;31.36;95191.84;6113818;28;109238;-68
2023/07/28 04:40:48;;;;;;;3.80;2.63;;;;;;;25.28;31.42;95193.91;6113687;28;109144;-66
2023/07/28 04:43:51;;;;;;;3.40;2.90;;;;;;;25.13;31.65;95188.31;6102886;28;109281;-66
2023/07/28 04:46:56;;;;;;;3.40;2.73;;;;;;;25.21;31.69;95184.84;6113544;28;109212;-68
2023/07/28 04:49:59;;;;;;;3.50;2.75;;;;;;;25.28;31.37;95187.78;6113329;28;109143;-65
2023/07/28 04:53:02;;;;;;;4.05;3.00;;;;;;;25.30;31.68;95185.56;6112880;28;109242;-66
2023/07/28 04:56:05;;;;;;;3.70;2.50;;;;;;;25.32;31.66;95191.38;6125291;28;110086;-66
2023/07/28 04:59:08;;;;;;;3.97;3.08;;;;;;;25.22;32.03;95194.44;6137070;28;109245;-65
2023/07/28 05:02:13;;;;;;;3.20;2.90;;;;;;;25.26;31.92;95184.63;6137035;28;109244;-65
2023/07/28 05:05:16;;;;;;;3.30;3.00;;;;;;;25.29;32.00;95192.03;6131310;28;109245;-65
2023/07/28 05:08:19;;;;;;;3.30;3.00;;;;;;;25.28;31.98;95185.88;6132269;28;109117;-65
2023/07/28 05:11:22;;;;;;;3.40;2.90;;;;;;;25.30;32.15;95193.59;6137065;28;110216;-67
2023/07/28 05:14:25;;;;;;;4.30;3.17;;;;;;;25.30;31.70;95189.03;6137289;28;110261;-68
2023/07/28 05:17:30;;;;;;;3.50;2.90;;;;;;;25.30;32.08;95188.25;6126096;28;109241;-67
2023/07/28 05:20:33;;;;;;;3.40;3.10;;;;;;;25.31;31.92;95187.91;6137178;28;110146;-67
2023/07/28 05:23:36;;;;;;;3.95;2.90;;;;;;;25.33;31.81;95187.59;6119814;28;109161;-67
2023/07/28 05:26:39;;;;;;;4.57;3.30;;;;;;;25.37;32.15;95193.91;6112973;28;109205;-67
2023/07/28 05:29:42;;;;;;;3.92;3.30;;;;;;;25.37;32.13;95188.53;6102690;28;108996;-67
2023/07/28 05:32:48;;;;;;;4.57;3.28;;;;;;;25.37;32.03;95194.72;6090751;28;109225;-67
2023/07/28 05:36:00;;;;;;;5.00;3.00;;;;;;;25.35;31.76;95198.78;6124167;28;110159;-67
2023/07/28 05:39:07;;;;;;;4.85;3.70;;;;;;;25.33;32.20;95187.59;6131042;28;110586;-65
2023/07/28 05:42:10;;;;;;;4.38;3.97;;;;;;;25.19;32.50;95187.81;6104844;28;109645;-67
2023/07/28 05:45:13;;;;;;;3.90;3.50;;;;;;;25.23;32.76;95193.31;6112411;28;109111;-67
2023/07/28 05:48:18;;;;;;;4.00;3.60;;;;;;;25.37;32.61;95185.84;6112303;28;109597;-67
2023/07/28 05:51:21;;;;;;;4.30;3.90;;;;;;;25.51;32.49;95186.41;6123144;28;109519;-66
2023/07/28 05:54:24;;;;;;;4.18;3.75;;;;;;;25.58;32.33;95183.25;6113304;28;109772;-66
2023/07/28 05:57:27;;;;;;;4.90;3.30;;;;;;;25.63;32.62;95175.00;6112610;28;109205;-67
2023/07/28 06:00:31;;;;;;;5.05;3.70;;;;;;;25.69;32.44;95169.13;6126043;28;109321;-67
2023/07/28 06:03:36;;;;;;;4.50;3.50;;;;;;;25.73;32.21;95169.28;6124923;28;109289;-67
2023/07/28 06:06:39;;;;;;;3.80;3.40;;;;;;;25.76;32.39;95173.97;6135211;28;109395;-67
2023/07/28 06:09:42;;;;;;;4.70;3.60;;;;;;;25.82;32.39;95169.19;6128818;28;109546;-67
2023/07/28 06:12:46;;;;;;;5.30;4.40;;;;;;;25.86;32.68;95170.09;6112132;28;110224;-67
2023/07/28 06:15:49;;;;;;;4.57;3.80;;;;;;;25.89;32.42;95164.13;6101604;28;109559;-68
2023/07/28 06:18:53;;;;;;;4.73;4.10;;;;;;;25.91;32.78;95172.63;6112194;28;110128;-68
2023/07/28 06:21:56;;;;;;;4.35;3.90;;;;;;;25.94;32.28;95163.91;6111463;28;109761;-68
2023/07/28 06:25:00;;;;;;;4.07;3.67;;;;;;;25.96;32.58;95164.38;6115888;28;112489;-61
2023/07/28 06:28:03;;;;;;;4.30;3.85;;;;;;;25.99;32.61;95161.03;6130667;28;108833;-60
2023/07/28 06:31:06;;;;;;;3.90;3.40;;;;;;;26.04;33.04;95152.03;6135780;28;109566;-60
2023/07/28 06:34:11;;;;;;;4.53;3.97;;;;;;;26.04;32.69;95152.81;6134248;28;108950;-61
2023/07/28 06:37:14;;;;;;;4.95;3.70;;;;;;;25.98;32.78;95149.50;6100627;28;109120;-61
2023/07/28 06:40:17;;;;;;;4.20;3.80;;;;;;;26.09;32.72;95152.63;6111207;28;109117;-67
2023/07/28 06:43:20;;;;;;;3.83;3.47;;;;;;;26.13;33.00;95150.84;6111427;28;109137;-61
2023/07/28 06:46:23;;;;;;;4.43;3.43;;;;;;;26.14;33.12;95152.41;6111578;28;109984;-60
2023/07/28 06:49:28;;;;;;;4.10;3.70;;;;;;;26.21;32.68;95157.25;6103132;28;109662;-61
2023/07/28 06:52:31;;;;;;;4.38;3.63;;;;;;;26.26;32.89;95165.09;6111020;28;109351;-61
2023/07/28 06:55:35;;;;;;;4.82;4.00;;;;;;;26.28;32.84;95162.88;6111048;28;109403;-61
2023/07/28 06:58:38;;;;;;;4.28;3.88;;;;;;;26.32;33.04;95158.41;6111247;28;109635;-60
2023/07/28 07:01:41;;;;;;;5.40;3.70;;;;;;;26.35;32.98;95157.75;6123028;28;109409;-61
2023/07/28 07:04:46;;;;;;;5.60;4.10;;;;;;;26.36;32.99;95161.22;6134123;28;109071;-60
2023/07/28 07:07:49;;;;;;;5.07;3.75;;;;;;;26.39;33.01;95152.53;6134653;28;109800;-60
2023/07/28 07:10:53;;;;;;;4.88;3.90;;;;;;;26.40;32.83;95151.41;6124894;28;109205;-60
2023/07/28 07:13:56;;;;;;;6.30;3.92;;;;;;;26.43;33.32;95153.44;6134505;28;109376;-62
2023/07/28 07:16:59;;;;;;;4.43;3.50;;;;;;;26.46;33.09;95150.06;6112871;28;109133;-61
2023/07/28 07:20:05;;;;;;;5.78;3.90;;;;;;;26.51;32.54;95149.84;6110690;28;109224;-61
2023/07/28 07:23:08;;;;;;;5.10;3.57;;;;;;;26.54;32.68;95155.34;6100102;28;109261;-61
2023/07/28 07:26:11;;;;;;;4.30;3.90;;;;;;;26.56;32.63;95155.03;6125857;28;109075;-61
2023/07/28 07:29:15;;;;;;;4.00;3.60;;;;;;;26.58;33.04;95155.47;6135079;28;112040;-61
2023/07/28 07:32:18;;;;;;;5.20;3.80;;;;;;;26.58;32.75;95148.22;6135704;28;111018;-61
2023/07/28 07:35:22;;;;;;;5.32;3.90;;;;;;;26.61;32.86;95159.41;6128864;28;109135;-67
2023/07/28 07:38:25;;;;;;;6.15;4.00;;;;;;;26.61;33.30;95154.81;6137782;28;109170;-66
2023/07/28 07:41:30;;;;;;;4.47;4.00;;;;;;;26.65;32.42;95153.06;6138532;28;109315;-66
2023/07/28 07:44:33;;;;;;;4.40;4.00;;;;;;;26.68;32.96;95152.38;6133653;28;109239;-63
2023/07/28 07:47:36;;;;;;;4.20;3.80;;;;;;;26.74;32.49;95148.41;6133417;28;109736;-66
2023/07/28 07:50:41;;;;;;;4.00;3.70;;;;;;;26.82;32.51;95152.09;6140483;28;110208;-66
2023/07/28 07:53:44;;;;;;;4.23;3.80;;;;;;;26.86;32.89;95158.34;6124450;28;109253;-67
2023/07/28 07:56:47;;;;;;;3.80;3.50;;;;;;;26.90;32.83;95163.88;6123111;28;109249;-66
2023/07/28 07:59:50;;;;;;;4.60;4.20;;;;;;;26.85;32.64;95168.31;6140078;28;109244;-66
2023/07/28 08:02:54;;;;;;;4.53;3.60;;;;;;;26.91;32.48;95168.13;6139685;28;109182;-67
2023/07/28 08:05:58;;;;;;;4.00;3.33;;;;;;;26.93;32.19;95168.56;6129391;28;108761;-66
2023/07/28 08:09:02;;;;;;;4.77;3.90;;;;;;;26.93;32.99;95168.56;6105659;28;109288;-66
2023/07/28 08:12:06;;;;;;;4.87;3.70;;;;;;;26.94;32.82;95172.81;6135311;28;109134;-67
2023/07/28 08:15:10;;;;;;;6.37;4.30;;;;;;;26.90;32.41;95161.19;6139758;28;109858;-67
2023/07/28 08:18:13;;;;;;;6.33;4.10;;;;;;;26.96;32.75;95157.16;6138763;28;111956;-63
2023/07/28 08:21:18;;;;;;;8.10;4.30;;;;;;;26.94;32.38;95162.84;6120575;28;109032;-67
2023/07/28 08:24:21;;;;;;;5.80;4.30;;;;;;;26.96;32.35;95151.78;6115894;28;110110;-66
2023/07/28 08:27:24;;;;;;;5.87;3.80;;;;;;;26.93;32.49;95155.13;6115481;28;109240;-67
2023/07/28 08:30:28;;;;;;;5.73;4.40;;;;;;;26.85;32.82;95154.09;6105923;28;109241;-66
2023/07/28 08:33:31;;;;;;;6.73;4.00;;;;;;;26.83;32.73;95149.06;6114815;28;108934;-67
2023/07/28 08:36:35;;;;;;;4.17;3.77;;;;;;;26.92;32.72;95154.34;6115534;28;108830;-66
2023/07/28 08:39:38;;;;;;;6.03;5.00;;;;;;;26.74;31.81;95143.03;6114690;28;109125;-67
2023/07/28 08:42:42;;;;;;;5.43;4.03;;;;;;;26.40;32.66;95143.34;6128575;28;110073;-67
2023/07/28 08:45:45;;;;;;;6.80;4.97;;;;;;;26.73;32.24;95141.47;6138749;28;109231;-61
2023/07/28 08:48:48;;;;;;;4.23;3.83;;;;;;;26.72;32.47;95141.78;6139109;28;109237;-61
2023/07/28 08:51:53;;;;;;;11.40;9.07;;;;;;;26.85;32.41;95135.31;6138757;28;109285;-61
2023/07/28 08:54:57;;;;;;;10.53;7.20;;;;;;;27.00;32.37;95134.66;6105050;28;110937;-61
2023/07/28 08:58:15;;;;;;;10.20;8.00;;;;;;;27.04;32.32;95134.75;6114979;28;109298;-62
2023/07/28 09:01:23;;;;;;;9.73;7.60;;;;;;;27.06;32.42;95127.94;6115674;28;108800;-62
2023/07/28 09:04:27;;;;;;;8.70;7.80;;;;;;;27.11;32.39;95118.88;6104539;28;110182;-63
2023/07/28 09:07:36;;;;;;;10.83;8.47;;;;;;;27.11;32.69;95118.88;6114411;28;109224;-61
2023/07/28 09:10:44;;;;;;;13.33;9.27;;;;;;;27.15;32.51;95114.41;6118852;28;108997;-61
2023/07/28 09:13:49;;;;;;;13.70;9.90;;;;;;;27.21;32.60;95104.19;6138887;28;109036;-61
2023/07/28 09:16:53;;;;;;;13.83;9.10;;;;;;;27.18;33.06;95097.59;6115098;28;109279;-62
2023/07/28 09:19:57;;;;;;;11.10;8.80;;;;;;;27.21;33.08;95099.59;6114948;28;109383;-62
2023/07/28 09:23:03;;;;;;;10.32;8.60;;;;;;;27.18;32.98;95092.22;6113167;28;109984;-61
2023/07/28 09:26:07;;;;;;;10.20;8.50;;;;;;;27.21;33.20;95086.16;6120409;28;109049;-61
2023/07/28 09:29:15;;;;;;;10.23;7.90;;;;;;;27.23;32.96;95086.63;6126157;28;109275;-61
2023/07/28 09:32:30;;;;;;;8.17;7.23;;;;;;;27.21;32.82;95072.72;6121768;28;110089;-61
2023/07/28 09:35:34;;;;;;;8.07;7.27;;;;;;;27.24;33.01;95060.56;6114274;28;109184;-62
2023/07/28 09:38:41;;;;;;;8.60;7.50;;;;;;;27.26;32.55;95064.50;6104523;28;109186;-62
2023/07/28 09:41:47;;;;;;;9.30;7.27;;;;;;;27.28;32.48;95048.81;6113140;28;109187;-61
2023/07/28 09:44:50;;;;;;;10.10;6.87;;;;;;;27.27;33.16;95051.84;6114141;28;109040;-63
2023/07/28 09:47:58;;;;;;;6.97;6.27;;;;;;;27.29;32.47;95046.91;6134854;28;109113;-61
2023/07/28 09:51:09;;;;;;;7.40;6.50;;;;;;;27.28;32.78;95046.13;6127998;28;109397;-61
2023/07/28 09:54:27;;;;;;;9.23;6.87;;;;;;;27.27;32.61;95041.88;6120950;28;109209;-61
2023/07/28 09:57:34;;;;;;;7.27;6.10;;;;;;;27.27;32.67;95043.78;6113641;28;109484;-67
2023/07/28 10:00:38;;;;;;;9.53;7.13;;;;;;;27.23;32.31;95035.59;6109727;28;109678;-66
2023/07/28 10:03:41;;;;;;;6.33;5.73;;;;;;;27.24;32.34;95039.84;6107581;28;108891;-67
2023/07/28 10:06:45;;;;;;;7.10;5.25;;;;;;;27.20;33.15;95036.25;6111992;28;109404;-67
2023/07/28 10:09:50;;;;;;;6.20;5.60;;;;;;;27.18;33.05;95035.78;6113391;28;109211;-67
2023/07/28 10:12:56;;;;;;;6.70;5.90;;;;;;;27.20;33.24;95030.09;6122816;28;109362;-67
2023/07/28 10:16:02;;;;;;;5.90;5.30;;;;;;;27.22;32.84;95028.66;6138047;28;109256;-67
2023/07/28 10:19:06;;;;;;;6.40;5.80;;;;;;;27.23;33.08;95035.59;6137752;28;109019;-67
2023/07/28 10:22:11;;;;;;;5.50;4.90;;;;;;;27.26;32.93;95026.09;6137273;28;109244;-66
2023/07/28 10:25:23;;;;;;;6.27;5.50;;;;;;;27.25;33.06;95021.81;6079081;28;109595;-67
2023/07/28 10:28:28;;;;;;;6.60;5.43;;;;;;;27.25;33.11;95019.91;6135817;28;109278;-67
2023/07/28 10:31:32;;;;;;;5.67;4.93;;;;;;;27.24;33.18;95022.94;6137643;28;109141;-67
2023/07/28 10:34:36;;;;;;;6.00;5.37;;;;;;;27.22;32.83;95022.47;6134357;28;110161;-64
2023/07/28 10:37:39;;;;;;;5.40;5.00;;;;;;;27.19;32.69;95010.50;6115594;28;109317;-67
2023/07/28 10:40:44;;;;;;;6.47;5.30;;;;;;;27.20;32.98;95012.06;6113763;28;109443;-66
2023/07/28 10:43:47;;;;;;;5.70;5.20;;;;;;;27.23;32.99;95005.25;6136759;28;110133;-68
2023/07/28 10:46:50;;;;;;;4.60;4.20;;;;;;;27.18;32.70;95000.88;6127047;28;109299;-67
2023/07/28 10:49:53;;;;;;;5.90;4.60;;;;;;;27.19;32.45;94997.06;6136955;28;109173;-68
2023/07/28 10:52:57;;;;;;;5.13;4.67;;;;;;;27.18;32.35;95000.88;6119240;28;110618;-68
2023/07/28 10:56:04;;;;;;;5.17;4.67;;;;;;;27.17;33.24;94988.56;6112473;28;109141;-67
2023/07/28 10:59:07;;;;;;;5.47;4.80;;;;;;;27.16;32.81;94984.31;6102866;28;109084;-67
2023/07/28 11:02:15;;;;;;;5.10;4.60;;;;;;;27.13;32.99;94974.25;6113051;28;109420;-68
2023/07/28 11:05:21;;;;;;;5.17;4.67;;;;;;;27.13;32.90;94972.34;6113049;28;109027;-65
2023/07/28 11:08:25;;;;;;;4.80;4.40;;;;;;;27.11;32.89;94963.06;6133347;28;109260;-65
2023/07/28 11:11:29;;;;;;;5.23;4.83;;;;;;;27.11;33.26;94961.16;6123161;28;109941;-66
2023/07/28 11:14:33;;;;;;;5.03;4.37;;;;;;;27.09;32.72;94965.31;6111654;28;109030;-66
2023/07/28 11:17:37;;;;;;;4.93;4.50;;;;;;;27.07;33.28;94956.81;6113161;28;110163;-67
2023/07/28 11:20:40;;;;;;;5.73;3.70;;;;;;;27.07;33.00;94954.91;6105177;28;110173;-66
2023/07/28 11:23:46;;;;;;;4.60;4.20;;;;;;;27.09;32.61;94954.56;6110921;28;109297;-66
2023/07/28 11:26:51;;;;;;;4.40;3.83;;;;;;;27.07;32.70;94949.53;6112273;28;108744;-67
2023/07/28 11:29:56;;;;;;;4.87;3.80;;;;;;;27.06;32.88;94945.28;6112340;28;109233;-66
2023/07/28 11:32:59;;;;;;;4.63;4.13;;;;;;;27.06;33.24;94944.50;6101693;28;109275;-66
2023/07/28 11:36:02;;;;;;;8.73;4.20;;;;;;;27.07;32.79;94936.09;6112267;28;110161;-66
2023/07/28 11:39:05;;;;;;;4.53;4.10;;;;;;;27.11;33.33;94925.44;6112536;28;108931;-67
2023/07/28 11:42:11;;;;;;;4.77;4.33;;;;;;;27.14;33.54;94932.81;6121228;28;110052;-67
2023/07/28 11:45:16;;;;;;;4.43;4.03;;;;;;;27.12;33.25;94927.00;6124882;28;110597;-67
2023/07/28 11:48:19;;;;;;;6.00;4.10;;;;;;;27.11;33.07;94925.44;6118129;28;109132;-67
2023/07/28 11:51:22;;;;;;;7.53;4.00;;;;;;;27.10;33.61;94921.19;6112170;28;110178;-66
2023/07/28 11:54:27;;;;;;;5.80;4.17;;;;;;;27.08;33.26;94923.44;6081531;28;109202;-66
2023/07/28 11:57:32;;;;;;;5.70;4.40;;;;;;;27.05;33.30;94929.47;6082990;28;109158;-67
2023/07/28 12:00:37;;;;;;;4.73;3.90;;;;;;;27.04;33.56;94919.88;6087953;28;109259;-66
2023/07/28 12:03:41;;;;;;;6.30;4.13;;;;;;;27.05;33.56;94919.53;6127206;28;109741;-66
2023/07/28 12:07:06;;;;;;;5.80;3.97;;;;;;;27.04;33.19;94919.88;6125442;28;109114;-66
2023/07/28 12:10:10;;;;;;;5.23;3.90;;;;;;;27.01;33.23;94901.75;6136383;28;110048;-66
2023/07/28 12:13:16;;;;;;;4.43;4.03;;;;;;;26.99;32.14;94904.78;6135269;28;109084;-67
2023/07/28 12:16:41;;;;;;;4.37;4.00;;;;;;;26.98;32.67;94899.75;6128683;28;108905;-61
2023/07/28 12:19:59;;;;;;;4.87;4.27;;;;;;;26.97;32.74;94893.59;6106102;28;110035;-61
2023/07/28 12:23:03;;;;;;;5.07;4.23;;;;;;;26.99;32.57;94901.31;6115412;28;109348;-61
2023/07/28 12:26:10;;;;;;;4.53;4.13;;;;;;;26.94;32.00;94877.38;6112875;28;109128;-61
2023/07/28 12:29:15;;;;;;;5.40;3.73;;;;;;;26.98;32.29;94897.84;6129741;28;109279;-61
2023/07/28 12:32:31;;;;;;;5.00;4.17;;;;;;;27.00;32.25;94898.28;6139853;28;109155;-61
2023/07/28 12:35:37;;;;;;;6.00;3.90;;;;;;;26.94;32.16;94894.28;6139722;28;111606;-62
2023/07/28 12:38:44;;;;;;;4.43;4.07;;;;;;;26.95;32.83;94885.09;6136125;28;109130;-62
2023/07/28 12:41:47;;;;;;;8.90;3.90;;;;;;;26.97;32.06;94885.53;6128814;28;109133;-61
2023/07/28 12:45:12;;;;;;;4.70;4.30;;;;;;;26.98;32.70;94873.66;6139576;28;108788;-61
2023/07/28 12:48:19;;;;;;;4.63;4.23;;;;;;;26.98;32.64;94873.66;6118102;28;109116;-62
2023/07/28 12:51:23;;;;;;;5.20;4.20;;;;;;;26.98;32.67;94873.66;6111066;28;110121;-62
2023/07/28 12:54:29;;;;;;;4.70;4.30;;;;;;;26.98;32.53;94872.88;6111492;28;110332;-62
2023/07/28 12:57:32;;;;;;;4.87;4.27;;;;;;;26.97;32.74;94864.06;6115232;28;109316;-61
2023/07/28 13:00:40;;;;;;;5.57;4.37;;;;;;;26.99;32.78;94871.75;6115041;28;109869;-62
2023/07/28 13:03:47;;;;;;;3.90;3.60;;;;;;;26.99;32.35;94869.06;6104459;28;112401;-62
2023/07/28 13:06:50;;;;;;;4.40;4.00;;;;;;;27.01;32.81;94869.50;6114697;28;109027;-61
2023/07/28 13:09:53;;;;;;;6.27;3.73;;;;;;;26.97;32.38;94860.59;6115057;28;109436;-61
2023/07/28 13:12:56;;;;;;;4.40;4.00;;;;;;;26.99;32.50;94850.28;6114981;28;108759;-61
2023/07/28 13:16:01;;;;;;;6.10;3.70;;;;;;;27.00;32.43;94849.94;6105274;28;109105;-61
2023/07/28 13:19:05;;;;;;;4.73;4.00;;;;;;;26.97;32.71;94850.63;6113599;28;109124;-61
2023/07/28 13:22:08;;;;;;;4.23;3.83;;;;;;;26.99;32.80;94843.00;6114909;28;109522;-62
2023/07/28 13:25:13;;;;;;;3.80;3.40;;;;;;;27.00;32.93;94838.41;6109530;28;109172;-62
2023/07/28 13:28:16;;;;;;;6.40;4.50;;;;;;;27.01;33.10;94824.63;6110015;28;110253;-68
2023/07/28 13:31:21;;;;;;;7.00;4.33;;;;;;;26.97;32.86;94821.06;6114018;28;109090;-68
2023/07/28 13:34:24;;;;;;;4.27;3.97;;;;;;;27.05;32.73;94824.72;6114465;28;109187;-69
2023/07/28 13:37:27;;;;;;;5.20;4.23;;;;;;;27.08;33.14;94824.84;6104339;28;110231;-67
2023/07/28 13:40:30;;;;;;;4.07;3.70;;;;;;;27.11;33.31;94826.84;6114704;28;110380;-68
2023/07/28 13:43:34;;;;;;;6.10;3.97;;;;;;;27.15;33.72;94830.41;6114253;28;109385;-70
2023/07/28 13:46:39;;;;;;;4.67;3.60;;;;;;;27.12;33.48;94824.94;6114057;28;109138;-67
2023/07/28 13:49:42;;;;;;;4.20;3.70;;;;;;;27.09;33.19;94821.03;6126730;28;109155;-68
2023/07/28 13:52:48;;;;;;;3.77;3.50;;;;;;;27.07;33.67;94814.44;6125316;28;108954;-67
2023/07/28 13:55:52;;;;;;;4.40;4.00;;;;;;;27.07;33.58;94817.91;6113757;28;109608;-67
2023/07/28 13:58:58;;;;;;;3.80;3.50;;;;;;;27.08;33.27;94808.72;6127594;28;109024;-64
2023/07/28 14:02:03;;;;;;;3.70;3.43;;;;;;;27.12;33.79;94803.44;6130814;28;112448;-67
2023/07/28 14:05:08;;;;;;;3.80;3.50;;;;;;;27.11;33.94;94801.88;6137672;28;109412;-66
2023/07/28 14:08:11;;;;;;;4.10;3.70;;;;;;;27.11;34.08;94807.25;6125600;28;109252;-66
2023/07/28 14:11:14;;;;;;;4.20;3.90;;;;;;;27.10;33.90;94813.75;6104850;28;112287;-68
2023/07/28 14:14:17;;;;;;;4.57;4.10;;;;;;;27.10;34.41;94803.78;6133911;28;109251;-67
2023/07/28 14:17:22;;;;;;;3.80;3.50;;;;;;;27.11;33.94;94812.63;6133183;28;109285;-67